Updated: 2 Tornadoes Touch Down in Connecticut

Courtesy: Nate Borque / NBCConnecticut.com

Courtesy: Nate Borque / NBCConnecticut.com

A tornado touched down in Greenwich and Stamford Monday morning and the same storm produced another, stronger tornado in the afternoon in Windsor, Windsor Locks, and East Windsor.

This mini supercell was long lived. It produced a 4.8 mile EF-0 tornado in northeast New Jersey northwest of Newark Airport around 9:20 a.m., a 3.7 mile long EF-0 tornado in Greenwich and Stamford, and an EF-1 tornado in Windsor, Windsor Locks and East Windsor around 1:30 p.m.

This is how the Windsor tornado looked on storm relative velocity from the KBOX radar. You can see a briefly impressive couplet with 60 knots of gate-to-gate shear for one volume scan over Windsor/Windsor Locks right over the Bradley Connector. In this case the red shading are winds blowing to the west while the green shading is wind blowing to the east. Where the two meet is, in this case, a tornado vortex signature.

The tornado warning from the National Weather Service was issued at 1:31 p.m. following the 1:27 p.m. volume scan. The touchdown likely touched down around 1:27 p.m. on the Windsor/Windsor Locks line just east of Poquonock. The tornado moved across I-91. It’s all but certain there was a touchdown based on damage reports, video of the tornado, and the radar signatures here.

Here’s a picture from Windsor where a roof was ripped off a business on Hayden Station Road. This picture corresponds to when the velocity couplet on radar was strongest at 1:27 p.m. This appears to be near where the tornado first touched down.

windsorhaydenstation

The tornado touchdown was very close to where the radar showed the strongest rotation (at 6500′ AGL). Tornado damage occurred just 0.40 nm south of the couplet. No surprise that there was a slight offset as the updraft can be tilted and/or the resolution of velocity data is a bit coarse at this distance.

The weather pattern was supportive of tornadoes in Connecticut today. High-end tornadoes from supercells are rare but do occur with large, powerful, and tall thunderstorms here in Connecticut. Those are the storms like June 1, 2011 in Springfield or July 10, 1989 in Hamden that drop monster hail and have deep and powerful updrafts. ¬†Just as common in southern New England and Long Island are mini supercells that develop in a highly sheared and very tropical airmass. These mini supercells can be quite shallow (i.e. not tall) and can drop brief tornadoes. Here’s the 1 p.m. proximity sounding from the RAP model at Bradley Airport.

17zrap

This is a classic mini-supercell sounding and hodograph for one of these events. Winds at the surface were backed ahead of the storm (notice the southerly and southeasterly winds near the ground), lifted condensation levels were incredibly low (700-800ft AGL), and there was approximately 500 j/kg of surface based CAPE with no CIN or low level inversion. The hodograph shows sufficient shear in the 0-1km and 0-3km for tornadogenesis.

This occurred in a highly tropical atmosphere (PWAT values in excess of 2.00″) and on the northern tip of a developing and northward moving low level jet. The nose of that low level jet produced a long enough and clockwise turning hodograph (indicative of large vertical wind shear has shown above) in the lowest 2 km of the atmosphere to support tornadoes.

namNE_850_spd_000

The top of this minisupercell was only about 35,000 feet high (unimpressive by thunderstorm standards), the storm produced little lightning, and the mesocyclone was only evident below 10,000 feet. Here’s a reflectivity loop (click to animate) showing the tornadic storm near BDL and an earlier storm near Agawam that exhibited some weak rotation produced 2 significant microbursts with hundreds of snapped/uprooted trees.

agawam_and_bdl

This area is no stranger to tornadoes. One of the most violent tornadoes to hit the state since the 1878 Wallingford tornado did so in Poquonock, Windsor Locks, and Suffield on October 3, 1979.

To my knowledge, this tornado was one of the most well documented on video and photographs in Connecticut history. Hamden, Bridgeport, Wethersfield and Greenwich were rain wrapped, the Springfield tornado passed north of the border, the weak Watertown tornado a few years back produced some funnel pictures but was generally obstructed by trees and hills. This is the first tornado I can remember in the state

Here’s a picture of the tornado going over the Connecticut River. How many of these are we going to see (remember West Springfield-Springfield in 2011???).

Rt 140 Bridge / Save Windsor Locks Facebook Page

Rt 140 Bridge / Save Windsor Locks Facebook Page

Here’s another picture from I-91 looking north. 91 from Windsor to Springfield is our new little tornado alley in New England I guess.

Save Windsor Locks Facebook Page

Save Windsor Locks Facebook Page

Originally some of the YouTube videos I saw of the tornado looked like there could have been a smaller rope tornado wrapping around the larger vortex but not so! My friend John Bagioni pointed me to a better video that’s close up and you can see what looks like a small “rope” tornado is actually nets from tobacco fields getting spun around the storm.

1013524_10151670264729330_420328198_n

For what it’s worth – here are the observations from Windsor Locks and Hartford (Brainard) around the time of the tornado touchdown.

KBDL 011751Z 33003KT 3SM RA BR BKN005 OVC013 23/22 A2998 RMK AO2 SLP150 P0101 60123 T02280217 10261 20222 57002
KBDL 011747Z COR 33004KT 3SM +RA BR BKN005 OVC013 23/22 A2998 RMK AO2 VIS 1 1/4V5 P0100
KBDL 011721Z 01006KT 1/2SM R06/2000V4000FT +RA FG BKN009 BKN025 OVC040 23/22 A2997 RMK AO2 P0039
KBDL 011651Z 30004KT 1 3/4SM RA BR BKN007 BKN025 OVC060 23/21 A2998 RMK AO2 TSE39 SLP152 P0022 T02280211

KHFD 011753Z 19009G15KT 10SM -RA BKN018 OVC029 26/23 A2997 RMK AO2 RAE01B51 SLP149 P0000 60011 T02560228 10261 20233 56004
KHFD 011708Z 16008KT 10SM BKN020 BKN033 OVC080 26/23 A2997 RMK AO2 RAE01 P0000
KHFD 011700Z 15005KT 10SM -RA SCT020 BKN033 OVC080 26/24 A2997 RMK AO2 P0000
KHFD 011653Z 14004KT 2 1/2SM -RA BR BKN012 BKN018 OVC029 25/24 A2997 RMK AO2 SLP149 P0005 T02500239

You can see that around 1:10 p.m. the winds at Bradley (northwest of where the tornado would touchdown) were out of the north while the winds south of the storm were out of the SSE. That slightly backed flow (SSE or 160 degrees) resulted in an area of rich helicity/low level shear that is confirmed by the 17z proximity RAP sounding at BDL I posted about. The “ground truth” obs match the 17z model analysis.

The earlier tornado in Greenwich and Stamford was weaker than the Windsor storm but resulted in widespread tree damage north of the Merritt Parkway.

Courtesy: NWS Upton, NY

Courtesy: NWS Upton, NY

This is the first tornado in Greenwich since the 2006 F2 tornado that tracked from Westchester County into Greenwich. This tornado was spawned from the same mini supercell that produced a tornado in northeastern New Jersey earlier in the morning. The rotation was impressive on doppler radar. Here’s a look at the TJFK TDWR.

BOGOgPfCAAAspce

 

In the grand scheme of things we’re fortunate that this tornado didn’t become a long-track tornado. There are some similarities between this tornado and the 2008 EF-2 New Hampshire tornado that was on the ground for 52 miles with a continuous damage path.

Advertisements

Leave a Reply

Please log in using one of these methods to post your comment:

WordPress.com Logo

You are commenting using your WordPress.com account. Log Out / Change )

Twitter picture

You are commenting using your Twitter account. Log Out / Change )

Facebook photo

You are commenting using your Facebook account. Log Out / Change )

Google+ photo

You are commenting using your Google+ account. Log Out / Change )

Connecting to %s